sensor_id;sensor_type;location;lat;lon;timestamp;pressure;altitude;pressure_sealevel;temperature;humidity
70506;BME280;58032;49.820;6.274;2023-04-09T00:01:06;98368.97;;;3.10;100.00
70506;BME280;58032;49.820;6.274;2023-04-09T00:03:34;98370.59;;;3.18;100.00
70506;BME280;58032;49.820;6.274;2023-04-09T00:06:02;98368.25;;;3.24;100.00
70506;BME280;58032;49.820;6.274;2023-04-09T00:08:29;98368.25;;;3.27;100.00
70506;BME280;58032;49.820;6.274;2023-04-09T00:10:57;98369.09;;;3.39;100.00
70506;BME280;58032;49.820;6.274;2023-04-09T00:13:25;98364.72;;;3.45;100.00
70506;BME280;58032;49.820;6.274;2023-04-09T00:16:01;98369.94;;;3.50;100.00
70506;BME280;58032;49.820;6.274;2023-04-09T00:18:28;98363.94;;;3.44;100.00
70506;BME280;58032;49.820;6.274;2023-04-09T00:20:55;98361.56;;;3.43;100.00
70506;BME280;58032;49.820;6.274;2023-04-09T00:23:22;98357.97;;;3.39;100.00
70506;BME280;58032;49.820;6.274;2023-04-09T00:25:49;98352.03;;;3.40;100.00
70506;BME280;58032;49.820;6.274;2023-04-09T00:28:16;98353.94;;;3.29;100.00
70506;BME280;58032;49.820;6.274;2023-04-09T00:30:43;98347.13;;;3.15;100.00
70506;BME280;58032;49.820;6.274;2023-04-09T00:33:10;98358.22;;;3.05;100.00
70506;BME280;58032;49.820;6.274;2023-04-09T00:35:36;98356.56;;;2.93;100.00
70506;BME280;58032;49.820;6.274;2023-04-09T00:38:03;98355.72;;;2.85;100.00
70506;BME280;58032;49.820;6.274;2023-04-09T00:40:30;98363.56;;;2.68;100.00
70506;BME280;58032;49.820;6.274;2023-04-09T00:42:57;98358.75;;;2.58;100.00
70506;BME280;58032;49.820;6.274;2023-04-09T00:45:24;98362.69;;;2.53;100.00
70506;BME280;58032;49.820;6.274;2023-04-09T00:47:51;98366.16;;;2.43;100.00
70506;BME280;58032;49.820;6.274;2023-04-09T00:50:20;98360.13;;;2.34;100.00
70506;BME280;58032;49.820;6.274;2023-04-09T00:52:47;98366.03;;;2.25;100.00
70506;BME280;58032;49.820;6.274;2023-04-09T00:55:14;98356.84;;;2.17;100.00
70506;BME280;58032;49.820;6.274;2023-04-09T00:57:41;98366.75;;;2.18;100.00
70506;BME280;58032;49.820;6.274;2023-04-09T01:00:09;98359.66;;;2.21;100.00
70506;BME280;58032;49.820;6.274;2023-04-09T01:02:40;98365.28;;;2.28;100.00
70506;BME280;58032;49.820;6.274;2023-04-09T01:05:07;98365.78;;;2.41;100.00
70506;BME280;58032;49.820;6.274;2023-04-09T01:11:05;98367.84;;;2.55;100.00
70506;BME280;58032;49.820;6.274;2023-04-09T01:13:48;98365.53;;;2.64;100.00
70506;BME280;58032;49.820;6.274;2023-04-09T01:16:18;98357.28;;;2.79;100.00
70506;BME280;58032;49.820;6.274;2023-04-09T01:18:57;98359.34;;;2.93;100.00
70506;BME280;58032;49.820;6.274;2023-04-09T01:21:29;98358.53;;;2.89;100.00
70506;BME280;58032;49.820;6.274;2023-04-09T01:24:08;98367.97;;;2.77;100.00
70506;BME280;58032;49.820;6.274;2023-04-09T01:26:53;98361.00;;;2.42;100.00
70506;BME280;58032;49.820;6.274;2023-04-09T01:29:30;98358.53;;;2.29;100.00
70506;BME280;58032;49.820;6.274;2023-04-09T01:31:59;98360.09;;;2.30;100.00
70506;BME280;58032;49.820;6.274;2023-04-09T01:34:28;98354.97;;;2.32;100.00
70506;BME280;58032;49.820;6.274;2023-04-09T01:36:58;98354.22;;;2.39;100.00
70506;BME280;58032;49.820;6.274;2023-04-09T01:39:26;98353.09;;;2.44;100.00
70506;BME280;58032;49.820;6.274;2023-04-09T01:41:54;98359.44;;;2.48;100.00
70506;BME280;58032;49.820;6.274;2023-04-09T01:44:22;98352.75;;;2.52;100.00
70506;BME280;58032;49.820;6.274;2023-04-09T01:46:50;98356.75;;;2.59;100.00
70506;BME280;58032;49.820;6.274;2023-04-09T01:49:17;98356.31;;;2.53;100.00
70506;BME280;58032;49.820;6.274;2023-04-09T01:51:44;98355.47;;;2.45;100.00
70506;BME280;58032;49.820;6.274;2023-04-09T01:54:14;98354.97;;;2.32;100.00
70506;BME280;58032;49.820;6.274;2023-04-09T01:56:46;98356.44;;;2.15;100.00
70506;BME280;58032;49.820;6.274;2023-04-09T01:59:14;98355.16;;;2.05;100.00
70506;BME280;58032;49.820;6.274;2023-04-09T02:01:46;98353.94;;;2.03;100.00
70506;BME280;58032;49.820;6.274;2023-04-09T02:04:38;98353.28;;;2.20;100.00
70506;BME280;58032;49.820;6.274;2023-04-09T02:09:39;98354.72;;;2.03;100.00
70506;BME280;58032;49.820;6.274;2023-04-09T02:12:11;98358.59;;;1.92;100.00
70506;BME280;58032;49.820;6.274;2023-04-09T02:14:40;98355.78;;;1.88;100.00
70506;BME280;58032;49.820;6.274;2023-04-09T02:17:08;98350.66;;;1.90;100.00
70506;BME280;58032;49.820;6.274;2023-04-09T02:19:43;98351.47;;;1.94;100.00
70506;BME280;58032;49.820;6.274;2023-04-09T02:22:11;98354.72;;;2.03;100.00
70506;BME280;58032;49.820;6.274;2023-04-09T02:24:38;98354.81;;;2.14;100.00
70506;BME280;58032;49.820;6.274;2023-04-09T02:27:08;98350.41;;;2.10;100.00
70506;BME280;58032;49.820;6.274;2023-04-09T02:29:39;98347.63;;;2.10;100.00
70506;BME280;58032;49.820;6.274;2023-04-09T02:32:06;98347.66;;;2.13;100.00
70506;BME280;58032;49.820;6.274;2023-04-09T02:34:37;98342.94;;;2.14;100.00
70506;BME280;58032;49.820;6.274;2023-04-09T02:37:04;98342.25;;;1.83;100.00
70506;BME280;58032;49.820;6.274;2023-04-09T02:39:31;98347.16;;;1.59;100.00
70506;BME280;58032;49.820;6.274;2023-04-09T02:41:58;98352.13;;;1.42;100.00
70506;BME280;58032;49.820;6.274;2023-04-09T02:44:25;98342.88;;;1.31;100.00
70506;BME280;58032;49.820;6.274;2023-04-09T02:46:53;98346.44;;;1.28;100.00
70506;BME280;58032;49.820;6.274;2023-04-09T02:49:19;98344.09;;;1.30;100.00
70506;BME280;58032;49.820;6.274;2023-04-09T02:51:47;98346.84;;;1.30;100.00
70506;BME280;58032;49.820;6.274;2023-04-09T02:54:14;98342.47;;;1.29;100.00
70506;BME280;58032;49.820;6.274;2023-04-09T02:56:41;98349.72;;;1.37;100.00
70506;BME280;58032;49.820;6.274;2023-04-09T02:59:08;98334.31;;;1.44;100.00
70506;BME280;58032;49.820;6.274;2023-04-09T03:01:35;98343.38;;;1.40;100.00
70506;BME280;58032;49.820;6.274;2023-04-09T03:04:02;98336.31;;;1.47;100.00
70506;BME280;58032;49.820;6.274;2023-04-09T03:06:29;98332.06;;;1.56;100.00
70506;BME280;58032;49.820;6.274;2023-04-09T03:08:55;98324.59;;;1.64;100.00
70506;BME280;58032;49.820;6.274;2023-04-09T03:11:22;98328.84;;;1.51;100.00
70506;BME280;58032;49.820;6.274;2023-04-09T03:13:49;98324.97;;;1.25;100.00
70506;BME280;58032;49.820;6.274;2023-04-09T03:16:16;98333.19;;;1.14;100.00
70506;BME280;58032;49.820;6.274;2023-04-09T03:18:43;98327.63;;;1.14;100.00
70506;BME280;58032;49.820;6.274;2023-04-09T03:21:10;98333.59;;;1.16;100.00
70506;BME280;58032;49.820;6.274;2023-04-09T03:23:44;98326.94;;;1.21;100.00
70506;BME280;58032;49.820;6.274;2023-04-09T03:26:11;98327.91;;;1.39;100.00
70506;BME280;58032;49.820;6.274;2023-04-09T03:28:44;98331.25;;;1.56;100.00
70506;BME280;58032;49.820;6.274;2023-04-09T03:31:11;98316.97;;;1.54;100.00
70506;BME280;58032;49.820;6.274;2023-04-09T03:33:40;98323.41;;;1.62;100.00
70506;BME280;58032;49.820;6.274;2023-04-09T03:36:08;98330.22;;;1.71;100.00
70506;BME280;58032;49.820;6.274;2023-04-09T03:39:01;98321.91;;;1.71;100.00
70506;BME280;58032;49.820;6.274;2023-04-09T03:41:41;98325.81;;;1.67;100.00
70506;BME280;58032;49.820;6.274;2023-04-09T03:44:12;98324.97;;;1.59;100.00
70506;BME280;58032;49.820;6.274;2023-04-09T03:46:53;98321.00;;;1.60;100.00
70506;BME280;58032;49.820;6.274;2023-04-09T03:49:20;98327.34;;;1.61;100.00
70506;BME280;58032;49.820;6.274;2023-04-09T03:51:47;98326.44;;;1.49;100.00
70506;BME280;58032;49.820;6.274;2023-04-09T03:54:14;98330.75;;;1.47;100.00
70506;BME280;58032;49.820;6.274;2023-04-09T03:56:43;98331.69;;;1.24;100.00
70506;BME280;58032;49.820;6.274;2023-04-09T03:59:12;98330.88;;;1.20;100.00
70506;BME280;58032;49.820;6.274;2023-04-09T04:01:42;98321.06;;;1.30;100.00
70506;BME280;58032;49.820;6.274;2023-04-09T04:04:09;98319.59;;;1.39;100.00
70506;BME280;58032;49.820;6.274;2023-04-09T04:06:51;98327.94;;;1.43;100.00
70506;BME280;58032;49.820;6.274;2023-04-09T04:09:23;98318.00;;;1.38;100.00
70506;BME280;58032;49.820;6.274;2023-04-09T04:11:54;98321.53;;;1.35;100.00
70506;BME280;58032;49.820;6.274;2023-04-09T04:14:25;98326.13;;;1.20;100.00
70506;BME280;58032;49.820;6.274;2023-04-09T04:16:59;98327.50;;;1.03;100.00
70506;BME280;58032;49.820;6.274;2023-04-09T04:19:29;98322.91;;;1.15;100.00
70506;BME280;58032;49.820;6.274;2023-04-09T04:21:56;98321.03;;;1.26;100.00
70506;BME280;58032;49.820;6.274;2023-04-09T04:24:23;98322.94;;;1.18;100.00
70506;BME280;58032;49.820;6.274;2023-04-09T04:26:51;98322.94;;;0.88;100.00
70506;BME280;58032;49.820;6.274;2023-04-09T04:29:19;98331.25;;;0.88;100.00
70506;BME280;58032;49.820;6.274;2023-04-09T04:31:58;98323.91;;;0.99;100.00
70506;BME280;58032;49.820;6.274;2023-04-09T04:34:31;98324.38;;;1.08;100.00
70506;BME280;58032;49.820;6.274;2023-04-09T04:37:08;98329.22;;;1.15;100.00
70506;BME280;58032;49.820;6.274;2023-04-09T04:39:35;98322.22;;;1.25;100.00
70506;BME280;58032;49.820;6.274;2023-04-09T04:42:08;98320.66;;;1.27;100.00
70506;BME280;58032;49.820;6.274;2023-04-09T04:44:35;98331.00;;;1.31;100.00
70506;BME280;58032;49.820;6.274;2023-04-09T04:47:34;98331.38;;;1.29;100.00
70506;BME280;58032;49.820;6.274;2023-04-09T04:50:03;98334.81;;;1.19;100.00
70506;BME280;58032;49.820;6.274;2023-04-09T04:52:38;98333.81;;;1.34;100.00
70506;BME280;58032;49.820;6.274;2023-04-09T04:55:07;98338.16;;;1.32;100.00
70506;BME280;58032;49.820;6.274;2023-04-09T04:57:34;98337.84;;;1.06;100.00
70506;BME280;58032;49.820;6.274;2023-04-09T05:00:01;98339.91;;;0.83;100.00
70506;BME280;58032;49.820;6.274;2023-04-09T05:02:28;98332.28;;;0.76;100.00
70506;BME280;58032;49.820;6.274;2023-04-09T05:05:20;98335.13;;;0.79;100.00
70506;BME280;58032;49.820;6.274;2023-04-09T05:07:51;98337.72;;;0.96;100.00
70506;BME280;58032;49.820;6.274;2023-04-09T05:10:19;98342.28;;;1.11;100.00
70506;BME280;58032;49.820;6.274;2023-04-09T05:12:46;98332.44;;;1.17;100.00
70506;BME280;58032;49.820;6.274;2023-04-09T05:15:20;98333.59;;;1.16;100.00
70506;BME280;58032;49.820;6.274;2023-04-09T05:17:47;98335.16;;;1.14;100.00
70506;BME280;58032;49.820;6.274;2023-04-09T05:20:15;98330.09;;;1.23;100.00
70506;BME280;58032;49.820;6.274;2023-04-09T05:22:53;98336.63;;;1.38;100.00
70506;BME280;58032;49.820;6.274;2023-04-09T05:25:26;98333.47;;;1.39;100.00
70506;BME280;58032;49.820;6.274;2023-04-09T05:27:54;98335.19;;;1.51;100.00
70506;BME280;58032;49.820;6.274;2023-04-09T05:30:22;98339.31;;;1.65;100.00
70506;BME280;58032;49.820;6.274;2023-04-09T05:32:50;98329.09;;;1.76;100.00
70506;BME280;58032;49.820;6.274;2023-04-09T05:35:17;98333.56;;;1.88;100.00
70506;BME280;58032;49.820;6.274;2023-04-09T05:37:44;98337.22;;;1.99;100.00
70506;BME280;58032;49.820;6.274;2023-04-09T05:40:11;98338.91;;;2.11;100.00
70506;BME280;58032;49.820;6.274;2023-04-09T05:42:39;98331.09;;;2.24;100.00
70506;BME280;58032;49.820;6.274;2023-04-09T05:45:21;98336.00;;;2.45;100.00
70506;BME280;58032;49.820;6.274;2023-04-09T05:47:51;98340.50;;;2.64;100.00
70506;BME280;58032;49.820;6.274;2023-04-09T05:50:21;98336.66;;;2.87;100.00
70506;BME280;58032;49.820;6.274;2023-04-09T05:52:51;98335.97;;;3.05;100.00
70506;BME280;58032;49.820;6.274;2023-04-09T05:55:19;98330.84;;;3.14;100.00
70506;BME280;58032;49.820;6.274;2023-04-09T05:57:51;98335.69;;;3.35;100.00
70506;BME280;58032;49.820;6.274;2023-04-09T06:00:18;98333.75;;;3.46;100.00
70506;BME280;58032;49.820;6.274;2023-04-09T06:02:48;98328.59;;;3.59;100.00
70506;BME280;58032;49.820;6.274;2023-04-09T06:05:15;98329.75;;;3.44;100.00
70506;BME280;58032;49.820;6.274;2023-04-09T06:07:42;98333.28;;;3.33;100.00
70506;BME280;58032;49.820;6.274;2023-04-09T06:10:09;98324.22;;;3.58;100.00
70506;BME280;58032;49.820;6.274;2023-04-09T06:12:36;98333.78;;;3.68;100.00
70506;BME280;58032;49.820;6.274;2023-04-09T06:15:04;98329.00;;;3.61;100.00
70506;BME280;58032;49.820;6.274;2023-04-09T06:17:31;98330.94;;;3.39;100.00
70506;BME280;58032;49.820;6.274;2023-04-09T06:19:58;98332.50;;;3.29;100.00
70506;BME280;58032;49.820;6.274;2023-04-09T06:22:25;98328.88;;;3.25;100.00
70506;BME280;58032;49.820;6.274;2023-04-09T06:24:52;98334.91;;;3.35;100.00
70506;BME280;58032;49.820;6.274;2023-04-09T06:27:19;98335.31;;;3.44;100.00
70506;BME280;58032;49.820;6.274;2023-04-09T06:29:47;98336.13;;;3.55;100.00
70506;BME280;58032;49.820;6.274;2023-04-09T06:32:15;98342.59;;;3.88;100.00
70506;BME280;58032;49.820;6.274;2023-04-09T06:34:42;98342.59;;;3.99;100.00
70506;BME280;58032;49.820;6.274;2023-04-09T06:37:09;98339.81;;;4.21;100.00
70506;BME280;58032;49.820;6.274;2023-04-09T06:39:36;98337.84;;;4.25;100.00
70506;BME280;58032;49.820;6.274;2023-04-09T06:42:04;98335.81;;;4.51;100.00
70506;BME280;58032;49.820;6.274;2023-04-09T06:44:50;98337.84;;;4.39;100.00
70506;BME280;58032;49.820;6.274;2023-04-09T06:47:17;98328.63;;;4.60;100.00
70506;BME280;58032;49.820;6.274;2023-04-09T06:49:43;98337.38;;;4.77;100.00
70506;BME280;58032;49.820;6.274;2023-04-09T06:52:10;98333.00;;;4.69;100.00
70506;BME280;58032;49.820;6.274;2023-04-09T06:54:37;98336.97;;;4.82;100.00
70506;BME280;58032;49.820;6.274;2023-04-09T06:57:05;98337.78;;;4.79;100.00
70506;BME280;58032;49.820;6.274;2023-04-09T06:59:33;98332.59;;;4.78;100.00
70506;BME280;58032;49.820;6.274;2023-04-09T07:01:59;98343.34;;;4.86;100.00
70506;BME280;58032;49.820;6.274;2023-04-09T07:04:26;98338.16;;;4.85;100.00
70506;BME280;58032;49.820;6.274;2023-04-09T07:06:53;98338.09;;;5.03;100.00
70506;BME280;58032;49.820;6.274;2023-04-09T07:09:22;98342.88;;;5.06;100.00
70506;BME280;58032;49.820;6.274;2023-04-09T07:11:49;98346.03;;;5.12;100.00
70506;BME280;58032;49.820;6.274;2023-04-09T07:14:16;98338.06;;;5.14;100.00
70506;BME280;58032;49.820;6.274;2023-04-09T07:16:43;98336.47;;;5.13;100.00
70506;BME280;58032;49.820;6.274;2023-04-09T07:19:12;98344.28;;;5.58;100.00
70506;BME280;58032;49.820;6.274;2023-04-09T07:21:38;98347.38;;;5.74;100.00
70506;BME280;58032;49.820;6.274;2023-04-09T07:24:10;98342.00;;;5.98;100.00
70506;BME280;58032;49.820;6.274;2023-04-09T07:26:41;98340.31;;;6.18;100.00
70506;BME280;58032;49.820;6.274;2023-04-09T07:29:08;98344.97;;;6.81;100.00
70506;BME280;58032;49.820;6.274;2023-04-09T07:31:35;98345.63;;;6.93;100.00
70506;BME280;58032;49.820;6.274;2023-04-09T07:34:02;98350.31;;;6.65;100.00
70506;BME280;58032;49.820;6.274;2023-04-09T07:36:30;98354.59;;;7.50;100.00
70506;BME280;58032;49.820;6.274;2023-04-09T07:39:02;98349.00;;;7.50;100.00
70506;BME280;58032;49.820;6.274;2023-04-09T07:41:29;98344.66;;;8.03;100.00
70506;BME280;58032;49.820;6.274;2023-04-09T07:43:57;98347.91;;;7.71;100.00
70506;BME280;58032;49.820;6.274;2023-04-09T07:46:24;98350.69;;;7.71;100.00
70506;BME280;58032;49.820;6.274;2023-04-09T07:48:51;98352.75;;;8.25;100.00
70506;BME280;58032;49.820;6.274;2023-04-09T07:51:18;98345.38;;;8.07;100.00
70506;BME280;58032;49.820;6.274;2023-04-09T07:53:46;98338.66;;;9.00;100.00
70506;BME280;58032;49.820;6.274;2023-04-09T07:56:13;98347.19;;;8.49;100.00
70506;BME280;58032;49.820;6.274;2023-04-09T07:58:39;98340.19;;;8.33;100.00
70506;BME280;58032;49.820;6.274;2023-04-09T08:01:07;98340.75;;;8.72;100.00
70506;BME280;58032;49.820;6.274;2023-04-09T08:03:34;98351.91;;;8.52;100.00
70506;BME280;58032;49.820;6.274;2023-04-09T08:06:02;98346.75;;;8.50;100.00
70506;BME280;58032;49.820;6.274;2023-04-09T08:08:29;98354.56;;;8.35;100.00
70506;BME280;58032;49.820;6.274;2023-04-09T08:10:56;98349.56;;;8.23;100.00
70506;BME280;58032;49.820;6.274;2023-04-09T08:13:23;98346.91;;;8.87;100.00
70506;BME280;58032;49.820;6.274;2023-04-09T08:15:53;98355.91;;;8.98;100.00
70506;BME280;58032;49.820;6.274;2023-04-09T08:18:19;98384.78;;;9.43;100.00
70506;BME280;58032;49.820;6.274;2023-04-09T08:20:46;98372.44;;;9.57;100.00
70506;BME280;58032;49.820;6.274;2023-04-09T08:23:13;98362.94;;;8.86;100.00
70506;BME280;58032;49.820;6.274;2023-04-09T08:25:40;98370.22;;;8.84;100.00
70506;BME280;58032;49.820;6.274;2023-04-09T08:28:07;98347.53;;;9.39;100.00
70506;BME280;58032;49.820;6.274;2023-04-09T08:30:34;98346.03;;;9.91;100.00
70506;BME280;58032;49.820;6.274;2023-04-09T08:33:02;98347.00;;;9.24;100.00
70506;BME280;58032;49.820;6.274;2023-04-09T08:35:30;98348.03;;;9.33;100.00
70506;BME280;58032;49.820;6.274;2023-04-09T08:37:57;98347.06;;;9.20;100.00
70506;BME280;58032;49.820;6.274;2023-04-09T08:40:24;98349.63;;;9.91;100.00
70506;BME280;58032;49.820;6.274;2023-04-09T08:42:55;98344.13;;;9.27;100.00
70506;BME280;58032;49.820;6.274;2023-04-09T08:45:24;98341.81;;;9.22;100.00
70506;BME280;58032;49.820;6.274;2023-04-09T08:47:51;98343.56;;;9.16;100.00
70506;BME280;58032;49.820;6.274;2023-04-09T08:50:18;98350.75;;;8.97;100.00
70506;BME280;58032;49.820;6.274;2023-04-09T08:52:46;98349.56;;;9.38;100.00
70506;BME280;58032;49.820;6.274;2023-04-09T08:55:14;98334.22;;;9.79;100.00
70506;BME280;58032;49.820;6.274;2023-04-09T08:57:41;98330.22;;;9.97;100.00
70506;BME280;58032;49.820;6.274;2023-04-09T09:00:08;98320.81;;;10.04;100.00
70506;BME280;58032;49.820;6.274;2023-04-09T09:02:35;98326.63;;;9.40;100.00
70506;BME280;58032;49.820;6.274;2023-04-09T09:05:04;98328.28;;;10.10;100.00
70506;BME280;58032;49.820;6.274;2023-04-09T09:07:32;98321.81;;;10.30;100.00
70506;BME280;58032;49.820;6.274;2023-04-09T09:10:01;98314.75;;;10.38;100.00
70506;BME280;58032;49.820;6.274;2023-04-09T09:12:34;98313.00;;;10.11;100.00
70506;BME280;58032;49.820;6.274;2023-04-09T09:15:01;98317.22;;;10.36;100.00
70506;BME280;58032;49.820;6.274;2023-04-09T09:17:28;98322.63;;;10.47;100.00
70506;BME280;58032;49.820;6.274;2023-04-09T09:19:56;98322.28;;;10.91;100.00
70506;BME280;58032;49.820;6.274;2023-04-09T09:22:23;98323.53;;;9.91;100.00
70506;BME280;58032;49.820;6.274;2023-04-09T09:24:51;98323.56;;;10.40;100.00
70506;BME280;58032;49.820;6.274;2023-04-09T09:27:37;98321.03;;;10.46;100.00
70506;BME280;58032;49.820;6.274;2023-04-09T09:30:19;98329.59;;;10.06;100.00
70506;BME280;58032;49.820;6.274;2023-04-09T09:32:51;98325.03;;;10.28;100.00
70506;BME280;58032;49.820;6.274;2023-04-09T09:35:18;98323.72;;;10.33;100.00
70506;BME280;58032;49.820;6.274;2023-04-09T09:37:45;98323.78;;;10.13;100.00
70506;BME280;58032;49.820;6.274;2023-04-09T09:40:25;98326.16;;;10.97;100.00
70506;BME280;58032;49.820;6.274;2023-04-09T09:42:56;98325.91;;;10.75;100.00
70506;BME280;58032;49.820;6.274;2023-04-09T09:45:24;98318.97;;;10.80;100.00
70506;BME280;58032;49.820;6.274;2023-04-09T09:47:52;98319.72;;;11.26;100.00
70506;BME280;58032;49.820;6.274;2023-04-09T09:50:22;98332.09;;;11.58;100.00
70506;BME280;58032;49.820;6.274;2023-04-09T09:52:58;98312.28;;;11.32;100.00
70506;BME280;58032;49.820;6.274;2023-04-09T09:55:30;98319.72;;;10.97;100.00
70506;BME280;58032;49.820;6.274;2023-04-09T09:58:01;98314.97;;;11.23;100.00
70506;BME280;58032;49.820;6.274;2023-04-09T10:00:31;98315.72;;;11.53;100.00
70506;BME280;58032;49.820;6.274;2023-04-09T10:03:09;98314.81;;;10.84;100.00
70506;BME280;58032;49.820;6.274;2023-04-09T10:05:39;98314.94;;;11.52;100.00
70506;BME280;58032;49.820;6.274;2023-04-09T10:08:06;98311.53;;;10.56;100.00
70506;BME280;58032;49.820;6.274;2023-04-09T10:10:33;98303.38;;;10.75;100.00
70506;BME280;58032;49.820;6.274;2023-04-09T10:13:02;98302.19;;;11.05;100.00
70506;BME280;58032;49.820;6.274;2023-04-09T10:15:32;98299.53;;;11.28;100.00
70506;BME280;58032;49.820;6.274;2023-04-09T10:17:59;98294.31;;;11.68;100.00
70506;BME280;58032;49.820;6.274;2023-04-09T10:20:38;98294.13;;;12.27;100.00
70506;BME280;58032;49.820;6.274;2023-04-09T10:23:12;98292.75;;;12.06;100.00
70506;BME280;58032;49.820;6.274;2023-04-09T10:25:41;98294.97;;;11.60;100.00
70506;BME280;58032;49.820;6.274;2023-04-09T10:28:16;98294.09;;;11.63;100.00
70506;BME280;58032;49.820;6.274;2023-04-09T10:30:44;98291.09;;;10.36;100.00
70506;BME280;58032;49.820;6.274;2023-04-09T10:33:18;98292.03;;;10.62;100.00
70506;BME280;58032;49.820;6.274;2023-04-09T10:35:47;98290.00;;;10.79;100.00
70506;BME280;58032;49.820;6.274;2023-04-09T10:38:14;98292.63;;;10.86;100.00
70506;BME280;58032;49.820;6.274;2023-04-09T10:40:46;98289.56;;;11.10;100.00
70506;BME280;58032;49.820;6.274;2023-04-09T10:43:18;98286.75;;;12.30;100.00
70506;BME280;58032;49.820;6.274;2023-04-09T10:45:47;98279.63;;;12.73;100.00
70506;BME280;58032;49.820;6.274;2023-04-09T10:48:19;98277.59;;;11.74;100.00
70506;BME280;58032;49.820;6.274;2023-04-09T10:50:49;98279.47;;;11.38;100.00
70506;BME280;58032;49.820;6.274;2023-04-09T10:53:22;98273.56;;;12.14;100.00
70506;BME280;58032;49.820;6.274;2023-04-09T10:55:51;98269.00;;;12.77;100.00
70506;BME280;58032;49.820;6.274;2023-04-09T10:58:18;98270.78;;;12.49;100.00
70506;BME280;58032;49.820;6.274;2023-04-09T11:00:48;98265.50;;;12.73;100.00
70506;BME280;58032;49.820;6.274;2023-04-09T11:03:27;98266.16;;;12.42;100.00
70506;BME280;58032;49.820;6.274;2023-04-09T11:06:00;98273.31;;;11.82;100.00
70506;BME280;58032;49.820;6.274;2023-04-09T11:08:29;98274.00;;;10.59;100.00
70506;BME280;58032;49.820;6.274;2023-04-09T11:10:57;98267.13;;;12.00;100.00
70506;BME280;58032;49.820;6.274;2023-04-09T11:13:28;98261.72;;;12.54;100.00
70506;BME280;58032;49.820;6.274;2023-04-09T11:15:55;98263.56;;;12.48;100.00
70506;BME280;58032;49.820;6.274;2023-04-09T11:18:24;98268.69;;;12.27;100.00
70506;BME280;58032;49.820;6.274;2023-04-09T11:20:59;98246.88;;;12.98;100.00
70506;BME280;58032;49.820;6.274;2023-04-09T11:23:26;98238.41;;;12.98;100.00
70506;BME280;58032;49.820;6.274;2023-04-09T11:25:54;98241.78;;;13.59;100.00
70506;BME280;58032;49.820;6.274;2023-04-09T11:28:22;98241.00;;;13.59;100.00
70506;BME280;58032;49.820;6.274;2023-04-09T11:30:50;98247.94;;;13.67;100.00
70506;BME280;58032;49.820;6.274;2023-04-09T11:33:17;98240.50;;;12.85;100.00
70506;BME280;58032;49.820;6.274;2023-04-09T11:35:45;98243.31;;;12.49;100.00
70506;BME280;58032;49.820;6.274;2023-04-09T11:38:12;98249.28;;;12.16;100.00
70506;BME280;58032;49.820;6.274;2023-04-09T11:40:41;98253.34;;;12.15;100.00
70506;BME280;58032;49.820;6.274;2023-04-09T11:43:13;98239.06;;;13.02;100.00
70506;BME280;58032;49.820;6.274;2023-04-09T11:45:44;98246.00;;;12.66;100.00
70506;BME280;58032;49.820;6.274;2023-04-09T11:48:13;98248.03;;;12.88;100.00
70506;BME280;58032;49.820;6.274;2023-04-09T11:50:40;98245.00;;;12.95;100.00
70506;BME280;58032;49.820;6.274;2023-04-09T11:53:18;98244.41;;;12.65;100.00
70506;BME280;58032;49.820;6.274;2023-04-09T11:55:46;98245.00;;;12.95;100.00
70506;BME280;58032;49.820;6.274;2023-04-09T11:58:15;98237.94;;;12.42;100.00
70506;BME280;58032;49.820;6.274;2023-04-09T12:00:42;98247.81;;;12.60;100.00
70506;BME280;58032;49.820;6.274;2023-04-09T12:03:11;98243.75;;;13.40;100.00
70506;BME280;58032;49.820;6.274;2023-04-09T12:05:38;98242.47;;;13.19;100.00
70506;BME280;58032;49.820;6.274;2023-04-09T12:08:11;98242.09;;;13.61;100.00
70506;BME280;58032;49.820;6.274;2023-04-09T12:10:38;98249.91;;;12.46;100.00
70506;BME280;58032;49.820;6.274;2023-04-09T12:13:07;98255.22;;;12.31;100.00
70506;BME280;58032;49.820;6.274;2023-04-09T12:15:37;98259.13;;;12.12;100.00
70506;BME280;58032;49.820;6.274;2023-04-09T12:18:08;98252.00;;;11.81;100.00
70506;BME280;58032;49.820;6.274;2023-04-09T12:20:37;98247.13;;;12.91;100.00
70506;BME280;58032;49.820;6.274;2023-04-09T12:23:06;98236.81;;;13.41;100.00
70506;BME280;58032;49.820;6.274;2023-04-09T12:25:35;98241.56;;;14.35;100.00
70506;BME280;58032;49.820;6.274;2023-04-09T12:28:04;98226.19;;;14.83;100.00
70506;BME280;58032;49.820;6.274;2023-04-09T12:30:32;98228.84;;;14.68;100.00
70506;BME280;58032;49.820;6.274;2023-04-09T12:33:00;98229.47;;;14.91;100.00
70506;BME280;58032;49.820;6.274;2023-04-09T12:35:28;98238.47;;;15.08;100.00
70506;BME280;58032;49.820;6.274;2023-04-09T12:37:55;98231.59;;;13.62;100.00
70506;BME280;58032;49.820;6.274;2023-04-09T12:40:22;98227.94;;;14.02;100.00
70506;BME280;58032;49.820;6.274;2023-04-09T12:42:48;98233.75;;;14.67;100.00
70506;BME280;58032;49.820;6.274;2023-04-09T12:45:17;98226.41;;;13.16;100.00
70506;BME280;58032;49.820;6.274;2023-04-09T12:47:44;98222.63;;;13.64;100.00
70506;BME280;58032;49.820;6.274;2023-04-09T12:50:12;98228.81;;;13.71;100.00
70506;BME280;58032;49.820;6.274;2023-04-09T12:52:41;98223.59;;;13.70;100.00
70506;BME280;58032;49.820;6.274;2023-04-09T12:55:08;98219.56;;;13.49;100.00
70506;BME280;58032;49.820;6.274;2023-04-09T12:57:37;98215.19;;;12.81;100.00
70506;BME280;58032;49.820;6.274;2023-04-09T13:00:05;98214.50;;;13.75;100.00
70506;BME280;58032;49.820;6.274;2023-04-09T13:02:34;98218.69;;;13.07;100.00
70506;BME280;58032;49.820;6.274;2023-04-09T13:05:01;98212.75;;;12.70;100.00
70506;BME280;58032;49.820;6.274;2023-04-09T13:07:28;98214.00;;;13.13;100.00
70506;BME280;58032;49.820;6.274;2023-04-09T13:09:56;98210.63;;;13.28;100.00
70506;BME280;58032;49.820;6.274;2023-04-09T13:12:23;98211.84;;;12.95;100.00
70506;BME280;58032;49.820;6.274;2023-04-09T13:14:53;98208.09;;;12.76;100.00